Time;durP1;ratioP1;P1;durP2;ratioP2;P2;SDS_P1;SDS_P2;PMS_P1;PMS_P2;Temp;Humidity;BMP_temperature;BMP_pressure;BME280_temperature;BME280_humidity;BME280_pressure;Samples;Min_cycle;Max_cycle;Signal;HPM_P1;HPM_P2
2021/09/30 00:02:20;;;;;;;5.57;3.40;;;9.10;99.90;;;;;;5069881;28;20062;-70
2021/09/30 00:04:46;;;;;;;8.65;3.80;;;9.20;99.90;;;;;;5070112;28;20111;-70
2021/09/30 00:07:12;;;;;;;7.40;3.40;;;9.20;99.90;;;;;;5069200;28;20092;-70
2021/09/30 00:09:40;;;;;;;7.22;3.80;;;9.30;99.90;;;;;;5070306;28;20047;-70
2021/09/30 00:12:11;;;;;;;9.45;4.03;;;9.30;99.90;;;;;;5069593;28;20499;-70
2021/09/30 00:14:42;;;;;;;6.72;4.05;;;9.30;99.90;;;;;;5070148;28;20112;-71
2021/09/30 00:17:48;;;;;;;6.30;3.78;;;9.20;99.90;;;;;;5070113;28;20017;-70
2021/09/30 00:33:58;;;;;;;8.90;4.05;;;9.10;99.90;;;;;;5055911;28;20037;-70
2021/09/30 00:41:59;;;;;;;5.93;4.18;;;9.00;99.90;;;;;;5055753;28;20033;-69
2021/09/30 00:47:29;;;;;;;8.70;5.00;;;9.00;99.90;;;;;;5055702;28;20025;-70
2021/09/30 00:50:07;;;;;;;14.57;5.18;;;8.90;99.90;;;;;;5056015;28;20425;-70
2021/09/30 00:52:43;;;;;;;8.82;5.50;;;8.90;99.90;;;;;;5056498;28;20040;-69
2021/09/30 01:18:49;;;;;;;12.50;5.43;;;8.90;99.90;;;;;;5055064;28;20032;-70
2021/09/30 01:25:24;;;;;;;9.70;4.90;;;9.00;99.90;;;;;;5071690;28;20357;-69
2021/09/30 01:33:31;;;;;;;11.55;4.80;;;8.90;99.90;;;;;;5070554;28;20032;-70
2021/09/30 01:46:42;;;;;;;12.70;4.95;;;8.80;99.90;;;;;;5070307;28;20037;-70
2021/09/30 01:58:18;;;;;;;12.18;5.35;;;8.70;99.90;;;;;;5070079;28;20029;-70
2021/09/30 02:23:09;;;;;;;13.88;5.97;;;8.60;99.90;;;;;;5112299;27;20351;-70
2021/09/30 02:39:33;;;;;;;14.38;6.53;;;8.50;99.90;;;;;;5111012;28;20027;-69
2021/09/30 02:58:50;;;;;;;16.55;7.00;;;8.60;99.90;;;;;;5110608;28;20027;-69
2021/09/30 03:01:20;;;;;;;17.60;7.00;;;8.50;99.90;;;;;;5110955;28;20052;-70
2021/09/30 03:03:47;;;;;;;18.08;6.95;;;8.60;99.90;;;;;;5111228;28;20027;-70
2021/09/30 03:06:13;;;;;;;19.25;7.70;;;8.60;99.90;;;;;;5110877;28;20016;-69
2021/09/30 03:08:44;;;;;;;15.65;7.13;;;8.50;99.90;;;;;;5109700;28;20365;-69
2021/09/30 03:11:10;;;;;;;19.05;7.68;;;8.50;99.90;;;;;;5111075;28;20031;-69
2021/09/30 03:13:38;;;;;;;16.63;7.05;;;8.50;99.90;;;;;;5110750;28;20104;-69
2021/09/30 03:16:12;;;;;;;12.30;7.45;;;8.50;99.90;;;;;;5110694;28;20020;-69
2021/09/30 03:23:46;;;;;;;17.20;7.47;;;8.50;99.90;;;;;;5110548;28;20020;-69
2021/09/30 03:26:14;;;;;;;18.52;7.28;;;8.50;99.90;;;;;;5110771;28;20023;-70
2021/09/30 03:28:40;;;;;;;12.98;6.82;;;8.50;99.90;;;;;;5110717;28;20030;-71
2021/09/30 03:31:08;;;;;;;11.95;6.15;;;8.60;99.90;;;;;;5110169;28;20056;-71
2021/09/30 03:33:34;;;;;;;10.02;6.18;;;8.50;99.90;;;;;;5099224;28;20028;-70
2021/09/30 03:36:00;;;;;;;10.57;5.90;;;8.50;99.90;;;;;;5097003;28;20024;-72
2021/09/30 03:38:26;;;;;;;19.75;6.60;;;8.50;99.90;;;;;;5096966;28;20103;-71
2021/09/30 03:40:51;;;;;;;10.80;5.50;;;8.50;99.90;;;;;;5096514;28;20123;-70
2021/09/30 03:43:19;;;;;;;14.35;5.32;;;8.50;99.90;;;;;;5096884;28;20082;-68
2021/09/30 03:45:45;;;;;;;16.13;6.15;;;8.50;99.90;;;;;;5096560;28;20074;-70
2021/09/30 03:48:10;;;;;;;14.00;5.72;;;8.50;99.90;;;;;;5095339;28;20412;-71
2021/09/30 03:50:47;;;;;;;12.25;5.03;;;8.50;99.90;;;;;;5096754;28;20044;-68
2021/09/30 03:53:18;;;;;;;9.45;5.03;;;8.60;99.90;;;;;;5096388;28;20027;-70
2021/09/30 03:59:27;;;;;;;14.27;6.50;;;8.50;99.90;;;;;;5095872;28;20024;-71
2021/09/30 04:01:16;;;;;;;14.07;6.03;;;8.60;99.90;;;;;;5095750;28;20027;-71
2021/09/30 04:03:42;;;;;;;13.10;5.32;;;8.50;99.90;;;;;;5096214;28;20471;-70
2021/09/30 04:06:07;;;;;;;10.88;4.80;;;8.50;99.90;;;;;;5096461;28;20051;-70
2021/09/30 04:08:34;;;;;;;13.05;5.82;;;8.50;99.90;;;;;;5096127;28;20091;-70
2021/09/30 04:10:59;;;;;;;9.00;5.60;;;8.40;99.90;;;;;;5096329;28;20024;-70
2021/09/30 04:13:25;;;;;;;12.32;5.35;;;8.40;99.90;;;;;;5094856;28;20104;-70
2021/09/30 04:15:51;;;;;;;21.83;5.78;;;8.40;99.90;;;;;;5096284;28;20475;-70
2021/09/30 04:18:17;;;;;;;22.25;6.28;;;8.40;99.90;;;;;;5096222;28;20081;-70
2021/09/30 04:20:43;;;;;;;13.95;5.20;;;8.40;99.90;;;;;;5095804;28;20040;-70
2021/09/30 04:23:09;;;;;;;16.60;5.75;;;8.40;99.90;;;;;;5095539;28;20043;-70
2021/09/30 04:25:35;;;;;;;19.00;6.28;;;8.40;99.90;;;;;;5095499;28;20107;-70
2021/09/30 04:28:00;;;;;;;14.43;5.65;;;8.40;99.90;;;;;;5095980;28;20103;-70
2021/09/30 04:30:26;;;;;;;10.93;5.60;;;8.40;99.90;;;;;;5095716;28;20103;-70
2021/09/30 04:32:52;;;;;;;20.40;5.80;;;8.40;99.90;;;;;;5095902;28;20025;-70
2021/09/30 04:35:18;;;;;;;12.38;5.47;;;8.40;99.90;;;;;;5094359;28;20025;-70
2021/09/30 04:37:43;;;;;;;16.40;5.60;;;8.40;99.90;;;;;;5095568;28;20107;-70
2021/09/30 04:40:09;;;;;;;19.17;6.25;;;8.40;99.90;;;;;;5095801;28;20024;-69
2021/09/30 04:42:35;;;;;;;12.32;5.95;;;8.40;99.90;;;;;;5095410;28;20461;-69
2021/09/30 04:45:01;;;;;;;18.10;6.05;;;8.40;99.90;;;;;;5094675;28;20152;-69
2021/09/30 04:47:27;;;;;;;10.90;5.47;;;8.30;99.90;;;;;;5095372;28;20060;-69
2021/09/30 04:49:53;;;;;;;16.70;6.18;;;8.40;99.90;;;;;;5094028;28;20385;-69
2021/09/30 04:52:20;;;;;;;15.95;5.30;;;8.40;99.90;;;;;;5094273;28;20034;-69
2021/09/30 04:54:46;;;;;;;16.45;5.75;;;8.30;99.90;;;;;;5095489;28;20043;-69
2021/09/30 04:57:11;;;;;;;15.75;5.53;;;8.30;99.90;;;;;;5095437;28;20445;-70
2021/09/30 04:59:37;;;;;;;13.02;5.82;;;8.30;99.90;;;;;;5093596;28;20028;-69
2021/09/30 05:02:02;;;;;;;19.55;5.35;;;8.30;99.90;;;;;;5095005;28;20078;-69
2021/09/30 05:04:28;;;;;;;13.98;5.43;;;8.30;99.90;;;;;;5094993;28;20093;-69
2021/09/30 05:06:55;;;;;;;19.80;6.82;;;8.20;99.90;;;;;;5095255;28;20027;-69
2021/09/30 05:09:23;;;;;;;16.00;6.07;;;8.20;99.90;;;;;;5094658;28;20020;-70
2021/09/30 05:11:53;;;;;;;16.13;5.75;;;8.30;99.90;;;;;;5095171;28;20031;-70
2021/09/30 05:14:19;;;;;;;15.10;5.50;;;8.30;99.90;;;;;;5094848;28;20031;-70
2021/09/30 05:16:47;;;;;;;16.60;5.30;;;8.20;99.90;;;;;;5094794;28;20035;-71
2021/09/30 05:19:14;;;;;;;10.98;5.57;;;8.30;99.90;;;;;;5095000;28;20505;-70
2021/09/30 05:21:39;;;;;;;11.80;5.55;;;8.20;99.90;;;;;;5094400;28;20078;-71
2021/09/30 05:24:05;;;;;;;13.52;5.43;;;8.20;99.90;;;;;;5094951;28;20462;-70
2021/09/30 05:26:30;;;;;;;17.67;6.85;;;8.10;99.90;;;;;;5094896;28;20020;-70
2021/09/30 05:28:57;;;;;;;10.05;5.25;;;8.20;99.90;;;;;;5094880;28;20024;-70
2021/09/30 05:31:23;;;;;;;15.63;5.85;;;8.20;99.90;;;;;;5094546;28;20055;-70
2021/09/30 05:33:48;;;;;;;18.48;6.05;;;8.10;99.90;;;;;;5094246;28;20052;-70
2021/09/30 05:36:14;;;;;;;18.10;6.03;;;8.10;99.90;;;;;;5094711;28;20032;-69
2021/09/30 05:38:39;;;;;;;14.07;6.38;;;8.10;99.90;;;;;;5093550;28;20032;-70
2021/09/30 05:41:05;;;;;;;11.43;4.85;;;8.10;99.90;;;;;;5094562;28;20107;-70
2021/09/30 05:43:35;;;;;;;11.55;5.68;;;8.20;99.90;;;;;;5094616;28;20055;-70
2021/09/30 05:46:02;;;;;;;14.98;5.78;;;8.20;99.90;;;;;;5094281;28;20051;-70
2021/09/30 05:48:29;;;;;;;18.15;5.53;;;8.20;99.90;;;;;;5094234;28;20031;-70
2021/09/30 05:50:55;;;;;;;16.83;5.35;;;8.30;99.90;;;;;;5094194;28;20405;-70
2021/09/30 05:53:22;;;;;;;10.25;5.20;;;8.30;99.90;;;;;;5094383;28;20511;-70
2021/09/30 05:55:48;;;;;;;16.67;5.63;;;8.30;99.90;;;;;;5093890;28;20024;-71
2021/09/30 05:58:14;;;;;;;16.35;5.35;;;8.40;99.90;;;;;;5093806;28;20488;-68
2021/09/30 06:01:00;;;;;;;19.70;6.07;;;8.50;99.90;;;;;;5094159;28;20032;-71
2021/09/30 06:12:10;;;;;;;14.55;5.03;;;8.60;99.90;;;;;;5090247;28;20839;-69
2021/09/30 06:14:35;;;;;;;14.52;4.97;;;8.60;99.90;;;;;;5090735;28;20032;-69
2021/09/30 06:17:01;;;;;;;13.52;4.50;;;8.70;99.90;;;;;;5090915;28;20017;-69
2021/09/30 06:19:27;;;;;;;15.45;4.68;;;8.90;99.90;;;;;;5090823;28;20553;-70
2021/09/30 06:21:53;;;;;;;16.13;3.97;;;9.40;99.90;;;;;;5091312;28;20099;-70
2021/09/30 06:24:21;;;;;;;15.98;4.13;;;10.00;99.90;;;;;;5090699;28;20029;-69
2021/09/30 06:26:47;;;;;;;13.95;3.95;;;10.50;99.90;;;;;;5091142;28;20020;-69
2021/09/30 06:29:13;;;;;;;10.60;4.13;;;10.70;99.90;;;;;;5090673;28;20024;-69
2021/09/30 06:31:40;;;;;;;8.88;4.18;;;11.00;99.90;;;;;;5090554;28;20016;-69
2021/09/30 06:34:05;;;;;;;8.90;3.47;;;11.30;99.90;;;;;;5089924;28;20027;-69
2021/09/30 06:36:31;;;;;;;11.18;3.83;;;11.40;99.90;;;;;;5090772;28;20373;-69
2021/09/30 06:38:57;;;;;;;12.45;3.80;;;11.80;99.90;;;;;;5090996;28;20365;-69
2021/09/30 06:41:22;;;;;;;14.27;4.03;;;11.80;99.90;;;;;;5090629;28;20032;-69
2021/09/30 06:43:48;;;;;;;11.35;3.58;;;12.00;99.90;;;;;;5089807;28;20051;-69
2021/09/30 06:46:14;;;;;;;13.52;4.03;;;12.10;99.90;;;;;;5085203;28;20031;-69
2021/09/30 06:48:39;;;;;;;16.70;4.43;;;12.20;99.90;;;;;;5072513;28;20036;-69
2021/09/30 06:51:05;;;;;;;9.73;3.42;;;12.80;99.90;;;;;;5085167;28;20024;-69
2021/09/30 06:53:32;;;;;;;12.90;3.72;;;12.40;99.90;;;;;;5070097;28;20032;-70
2021/09/30 06:56:04;;;;;;;12.55;3.58;;;12.30;99.90;;;;;;5087379;28;20020;-70
2021/09/30 06:58:30;;;;;;;10.00;3.60;;;12.50;99.90;;;;;;5078508;28;20457;-70
2021/09/30 07:00:57;;;;;;;14.98;3.58;;;12.90;99.90;;;;;;5079490;28;20404;-70
2021/09/30 07:03:24;;;;;;;13.52;3.40;;;13.10;99.90;;;;;;5084024;28;20013;-70
2021/09/30 07:05:49;;;;;;;14.05;4.50;;;13.50;99.90;;;;;;5086877;28;20025;-69
2021/09/30 07:08:15;;;;;;;11.43;3.17;;;13.20;99.90;;;;;;5082015;28;20028;-70
2021/09/30 07:10:42;;;;;;;14.27;4.30;;;13.20;99.90;;;;;;5081738;28;20494;-63
2021/09/30 07:13:07;;;;;;;7.05;3.35;;;13.20;99.90;;;;;;5087893;28;20490;-64
2021/09/30 07:15:33;;;;;;;13.90;3.53;;;12.80;99.90;;;;;;5084667;28;20025;-63
2021/09/30 07:17:58;;;;;;;10.57;3.65;;;13.20;99.90;;;;;;5082584;28;20029;-63
2021/09/30 07:20:24;;;;;;;9.48;3.13;;;13.50;99.90;;;;;;5086646;28;20020;-63
2021/09/30 07:22:49;;;;;;;12.32;3.67;;;14.00;99.90;;;;;;5069925;28;20500;-64
2021/09/30 07:25:15;;;;;;;12.70;3.50;;;13.70;99.90;;;;;;5066858;28;20064;-64
2021/09/30 07:27:40;;;;;;;11.63;4.20;;;14.10;99.90;;;;;;5073385;28;20036;-64
2021/09/30 07:30:06;;;;;;;11.52;3.65;;;13.90;99.90;;;;;;5072783;28;20083;-64
2021/09/30 07:32:32;;;;;;;13.35;4.07;;;14.10;99.90;;;;;;5072575;28;20382;-63
2021/09/30 07:34:58;;;;;;;11.55;3.30;;;14.10;99.90;;;;;;5067557;28;20106;-64
2021/09/30 07:37:24;;;;;;;13.27;3.10;;;13.50;99.90;;;;;;5060491;28;20050;-63
2021/09/30 07:39:50;;;;;;;10.55;3.40;;;13.70;99.90;;;;;;5072932;28;20030;-63
2021/09/30 07:42:16;;;;;;;10.88;3.30;;;14.00;99.90;;;;;;5073384;28;20024;-64
2021/09/30 07:44:41;;;;;;;10.32;2.90;;;14.10;99.90;;;;;;5072700;28;20044;-64
2021/09/30 07:47:07;;;;;;;9.52;3.30;;;14.10;99.90;;;;;;5052912;28;20025;-64
2021/09/30 07:49:33;;;;;;;9.95;3.25;;;13.90;99.90;;;;;;5065279;28;20032;-63
2021/09/30 07:51:59;;;;;;;9.95;3.28;;;14.10;99.90;;;;;;5073492;28;20028;-63
2021/09/30 07:54:25;;;;;;;9.38;3.72;;;14.10;99.90;;;;;;5065446;28;20025;-64
2021/09/30 07:56:51;;;;;;;11.98;3.05;;;14.30;99.90;;;;;;5072091;28;20371;-64
2021/09/30 07:59:16;;;;;;;7.88;3.05;;;14.50;99.90;;;;;;5072360;28;20369;-64
2021/09/30 08:01:42;;;;;;;9.68;3.40;;;14.30;99.90;;;;;;5069340;28;20029;-64
2021/09/30 08:04:07;;;;;;;11.20;3.42;;;14.20;99.90;;;;;;5073664;28;20561;-64
2021/09/30 08:06:33;;;;;;;11.18;3.17;;;14.40;99.90;;;;;;5072251;28;20099;-64
2021/09/30 08:08:59;;;;;;;12.23;3.25;;;14.70;99.90;;;;;;5070457;28;20099;-64
2021/09/30 08:11:27;;;;;;;8.00;3.30;;;14.90;99.90;;;;;;5060726;28;20052;-64
2021/09/30 08:13:53;;;;;;;9.20;3.08;;;14.50;99.90;;;;;;5067447;28;20482;-63
2021/09/30 08:16:19;;;;;;;8.80;3.00;;;15.10;99.90;;;;;;5058702;28;20071;-64
2021/09/30 08:18:46;;;;;;;13.20;3.08;;;14.90;99.90;;;;;;5068271;28;20071;-64
2021/09/30 08:21:13;;;;;;;14.93;4.22;;;15.10;99.90;;;;;;5052435;28;20082;-64
2021/09/30 08:23:40;;;;;;;10.13;2.85;;;15.00;99.90;;;;;;5071478;28;20168;-64
2021/09/30 08:26:06;;;;;;;12.90;3.38;;;15.20;99.90;;;;;;5073311;28;20385;-64
2021/09/30 08:28:33;;;;;;;7.70;3.20;;;15.10;99.90;;;;;;5057977;28;20032;-64
2021/09/30 08:30:58;;;;;;;13.63;3.55;;;15.10;99.90;;;;;;5072128;28;20119;-64
2021/09/30 08:33:25;;;;;;;11.15;3.40;;;15.50;99.90;;;;;;5070092;28;20473;-64
2021/09/30 08:35:50;;;;;;;13.63;3.15;;;15.50;99.90;;;;;;5053741;28;20050;-63
2021/09/30 08:38:16;;;;;;;10.63;3.08;;;15.40;99.90;;;;;;5068605;28;20033;-63
2021/09/30 08:40:42;;;;;;;15.82;3.55;;;15.80;99.90;;;;;;5071355;28;20029;-64
2021/09/30 08:43:08;;;;;;;9.05;2.70;;;15.80;99.90;;;;;;5073040;28;20044;-64
2021/09/30 08:45:34;;;;;;;9.63;2.75;;;15.80;99.90;;;;;;5064600;28;20032;-64
2021/09/30 08:48:03;;;;;;;13.85;3.33;;;16.10;99.90;;;;;;5072678;28;20456;-64
2021/09/30 08:50:32;;;;;;;13.02;2.78;;;16.40;99.90;;;;;;5071304;28;20031;-64
2021/09/30 08:52:59;;;;;;;11.85;3.10;;;16.60;99.90;;;;;;5071612;28;20027;-64
2021/09/30 08:55:25;;;;;;;9.23;2.50;;;16.50;99.90;;;;;;5071336;28;20017;-63
2021/09/30 08:57:51;;;;;;;11.73;2.70;;;15.40;99.90;;;;;;5071836;28;20489;-64
2021/09/30 09:00:19;;;;;;;11.90;2.42;;;15.70;99.90;;;;;;5073570;28;20503;-68
2021/09/30 09:02:48;;;;;;;12.48;2.97;;;16.00;99.90;;;;;;5080685;28;20032;-69
2021/09/30 09:05:14;;;;;;;10.68;3.03;;;16.00;99.90;;;;;;5070956;28;20058;-69
2021/09/30 09:07:51;;;;;;;13.13;3.05;;;16.10;99.90;;;;;;5069867;28;20453;-69
2021/09/30 09:10:20;;;;;;;16.13;3.15;;;16.20;99.90;;;;;;5071600;28;20123;-69
2021/09/30 09:12:46;;;;;;;10.63;3.10;;;16.30;99.90;;;;;;5069973;28;20016;-69
2021/09/30 09:15:11;;;;;;;7.72;2.30;;;16.80;99.90;;;;;;5052604;28;20467;-69
2021/09/30 09:17:40;;;;;;;7.28;2.38;;;17.20;99.90;;;;;;5065209;28;20033;-69
2021/09/30 09:20:06;;;;;;;9.60;2.75;;;16.80;99.90;;;;;;5071584;28;20032;-69
2021/09/30 09:22:35;;;;;;;12.50;2.83;;;16.10;99.90;;;;;;5070305;28;20540;-69
2021/09/30 09:25:21;;;;;;;11.65;2.90;;;16.50;99.90;;;;;;5068987;28;20136;-69
2021/09/30 09:28:02;;;;;;;10.77;2.47;;;16.10;99.90;;;;;;5070335;28;20458;-69
2021/09/30 09:30:39;;;;;;;13.60;2.78;;;16.30;99.90;;;;;;5070166;28;20039;-68
2021/09/30 09:33:25;;;;;;;10.95;2.80;;;16.30;99.90;;;;;;5070601;28;20017;-69
2021/09/30 09:36:13;;;;;;;10.32;2.33;;;16.30;99.90;;;;;;5069161;28;20039;-69
2021/09/30 09:38:48;;;;;;;12.65;2.75;;;16.20;99.90;;;;;;5071227;28;20428;-69
2021/09/30 09:44:00;;;;;;;16.20;2.72;;;16.60;99.90;;;;;;5100854;27;20425;-69
2021/09/30 09:46:30;;;;;;;11.95;2.83;;;17.10;99.90;;;;;;5089499;28;20024;-69
2021/09/30 09:49:00;;;;;;;12.48;2.53;;;16.90;99.90;;;;;;5088238;28;20378;-70
2021/09/30 09:51:33;;;;;;;10.40;2.42;;;16.80;99.90;;;;;;5088329;28;20035;-70
2021/09/30 09:53:59;;;;;;;8.18;2.08;;;16.90;99.90;;;;;;5088387;28;20028;-70
2021/09/30 09:56:25;;;;;;;10.35;2.85;;;17.00;99.90;;;;;;5088998;28;20077;-69
2021/09/30 09:58:56;;;;;;;8.73;2.30;;;16.50;99.90;;;;;;5096591;28;20082;-70
2021/09/30 10:01:27;;;;;;;9.48;2.17;;;16.20;99.90;;;;;;5090416;28;20020;-69
2021/09/30 10:03:58;;;;;;;9.38;2.45;;;16.50;99.90;;;;;;5087441;28;20098;-69
2021/09/30 10:06:25;;;;;;;8.50;2.22;;;16.60;99.90;;;;;;5087921;28;20388;-69
2021/09/30 10:08:51;;;;;;;10.85;2.15;;;16.40;99.90;;;;;;5088476;28;20377;-69
2021/09/30 10:11:17;;;;;;;11.93;2.75;;;16.30;99.90;;;;;;5099486;28;20115;-70
2021/09/30 10:13:42;;;;;;;12.50;2.35;;;16.00;99.90;;;;;;5088775;28;20052;-69
2021/09/30 10:16:08;;;;;;;9.93;1.98;;;16.20;99.90;;;;;;5088346;28;20036;-69
2021/09/30 10:18:34;;;;;;;9.77;2.30;;;16.20;99.90;;;;;;5088622;28;20244;-69
2021/09/30 10:21:00;;;;;;;7.80;2.50;;;16.10;99.90;;;;;;5087927;28;20465;-70
2021/09/30 10:23:30;;;;;;;13.50;2.50;;;16.00;99.90;;;;;;5087018;28;20074;-69
2021/09/30 10:25:58;;;;;;;10.15;2.60;;;16.00;99.90;;;;;;5088288;28;20021;-69
2021/09/30 10:28:25;;;;;;;7.70;2.00;;;15.50;99.90;;;;;;5088046;28;20107;-64
2021/09/30 10:30:53;;;;;;;8.70;2.10;;;15.80;99.90;;;;;;5088380;28;20020;-64
2021/09/30 10:33:22;;;;;;;12.77;2.85;;;15.90;99.90;;;;;;5087668;28;20028;-64
2021/09/30 10:35:52;;;;;;;9.25;2.05;;;15.50;99.90;;;;;;5086778;28;20026;-64
2021/09/30 10:38:21;;;;;;;9.05;2.33;;;15.50;99.90;;;;;;5086024;28;20028;-64
2021/09/30 10:43:44;;;;;;;8.98;2.55;;;15.10;99.90;;;;;;5048998;28;20378;-64
2021/09/30 10:49:34;;;;;;;9.43;2.33;;;15.70;99.90;;;;;;5110940;27;20408;-64
2021/09/30 10:52:18;;;;;;;11.70;2.08;;;15.80;99.90;;;;;;5095061;28;20025;-64
2021/09/30 10:54:52;;;;;;;11.30;2.20;;;16.00;99.90;;;;;;5108303;28;20016;-65
2021/09/30 11:00:12;;;;;;;10.07;2.10;;;16.40;99.90;;;;;;5090979;28;20352;-63
2021/09/30 11:03:09;;;;;;;8.48;2.17;;;16.40;99.90;;;;;;5089964;28;20024;-64
2021/09/30 11:05:37;;;;;;;12.18;2.10;;;16.10;99.90;;;;;;5073948;28;20112;-64
2021/09/30 11:08:25;;;;;;;10.65;2.15;;;16.20;99.90;;;;;;5077751;28;20028;-64
2021/09/30 11:14:05;;;;;;;8.85;2.15;;;16.30;99.90;;;;;;5090114;28;20439;-64
2021/09/30 11:16:41;;;;;;;9.30;2.22;;;17.00;99.90;;;;;;5080406;28;20028;-64
2021/09/30 11:19:30;;;;;;;8.35;2.00;;;16.70;99.90;;;;;;5087877;28;20026;-64
2021/09/30 11:22:01;;;;;;;8.23;2.17;;;17.10;99.90;;;;;;5089265;28;20431;-65
2021/09/30 11:24:29;;;;;;;9.43;2.30;;;17.50;99.90;;;;;;5081037;28;20112;-64
2021/09/30 11:29:36;;;;;;;7.20;2.00;;;17.50;99.90;;;;;;5070596;28;20349;-64
2021/09/30 11:34:50;;;;;;;13.30;2.25;;;17.70;99.90;;;;;;5093323;27;20441;-70
2021/09/30 11:37:26;;;;;;;8.93;1.90;;;16.90;99.90;;;;;;5095540;28;20764;-68
2021/09/30 11:39:57;;;;;;;6.70;1.80;;;16.40;99.90;;;;;;5100186;28;20021;-68
2021/09/30 11:42:25;;;;;;;7.30;1.73;;;16.40;99.90;;;;;;5100288;28;20024;-70
2021/09/30 11:45:01;;;;;;;4.65;1.67;;;16.50;99.90;;;;;;5096325;28;20038;-69
2021/09/30 11:47:29;;;;;;;8.15;1.80;;;16.80;99.90;;;;;;5093811;28;20032;-68
2021/09/30 11:49:55;;;;;;;7.38;1.70;;;16.50;99.90;;;;;;5090413;28;20074;-69
2021/09/30 11:52:21;;;;;;;9.80;1.75;;;16.60;99.90;;;;;;5104211;28;20074;-68
2021/09/30 11:54:48;;;;;;;5.82;2.00;;;16.80;99.90;;;;;;5102277;28;20016;-68
2021/09/30 11:57:19;;;;;;;5.82;1.83;;;16.50;99.90;;;;;;5106412;28;20020;-68
2021/09/30 11:59:45;;;;;;;7.82;2.25;;;16.50;99.90;;;;;;5112803;28;20041;-68
2021/09/30 12:02:12;;;;;;;8.88;2.05;;;16.60;99.90;;;;;;5110495;28;20027;-68
2021/09/30 12:04:43;;;;;;;6.60;2.17;;;16.40;99.90;;;;;;5110324;28;20049;-68
2021/09/30 12:07:18;;;;;;;8.05;1.50;;;16.60;99.90;;;;;;5110330;28;20016;-69
2021/09/30 12:09:45;;;;;;;7.53;1.90;;;16.70;99.90;;;;;;5103263;28;20469;-68
2021/09/30 12:12:11;;;;;;;7.40;1.80;;;16.70;99.90;;;;;;5110616;28;20024;-68
2021/09/30 12:14:41;;;;;;;7.70;2.03;;;16.50;99.90;;;;;;5089896;28;20146;-69
2021/09/30 12:17:12;;;;;;;12.32;2.70;;;16.00;99.90;;;;;;5093542;28;20027;-69
2021/09/30 12:19:43;;;;;;;8.95;1.85;;;16.20;99.90;;;;;;5099595;28;20104;-70
2021/09/30 12:22:20;;;;;;;7.30;1.70;;;16.50;99.90;;;;;;5097219;28;20020;-69
2021/09/30 12:24:50;;;;;;;7.47;1.60;;;16.70;99.90;;;;;;5097341;28;20070;-68
2021/09/30 12:27:16;;;;;;;5.03;1.63;;;16.80;99.90;;;;;;5093663;28;20020;-69
2021/09/30 12:29:47;;;;;;;6.00;1.35;;;16.90;99.90;;;;;;5090937;28;20512;-69
2021/09/30 12:32:16;;;;;;;5.43;2.05;;;16.90;99.90;;;;;;5089713;28;20028;-71
2021/09/30 12:34:57;;;;;;;5.57;1.90;;;16.50;99.90;;;;;;5092158;28;20020;-68
2021/09/30 12:37:29;;;;;;;6.57;1.85;;;16.60;99.90;;;;;;5098142;28;20456;-70
2021/09/30 12:42:38;;;;;;;6.43;1.35;;;16.60;99.90;;;;;;5110696;27;20384;-67
2021/09/30 12:45:06;;;;;;;7.03;1.55;;;16.50;99.90;;;;;;5100689;28;20441;-69
2021/09/30 12:47:35;;;;;;;4.45;1.45;;;16.40;99.90;;;;;;5089299;28;20031;-69
2021/09/30 12:50:06;;;;;;;7.50;1.88;;;16.30;99.90;;;;;;5090028;28;20019;-69
2021/09/30 12:52:32;;;;;;;8.38;1.80;;;16.30;99.90;;;;;;5090126;28;20435;-70
2021/09/30 12:55:00;;;;;;;6.45;1.58;;;16.30;99.90;;;;;;5090356;28;20043;-69
2021/09/30 12:57:32;;;;;;;5.60;1.65;;;16.00;99.90;;;;;;5089364;28;20028;-68
2021/09/30 13:00:08;;;;;;;9.40;1.70;;;16.30;99.90;;;;;;5090102;28;20031;-69
2021/09/30 13:02:34;;;;;;;4.00;1.52;;;16.80;99.90;;;;;;5088990;28;20024;-69
2021/09/30 13:04:59;;;;;;;10.45;1.58;;;16.50;99.20;;;;;;5090028;28;20039;-69
2021/09/30 13:07:25;;;;;;;7.88;1.70;;;16.60;99.90;;;;;;5090342;28;20595;-70
2021/09/30 13:10:02;;;;;;;9.55;2.28;;;16.60;99.90;;;;;;5089472;28;20020;-69
2021/09/30 13:12:27;;;;;;;6.32;1.85;;;16.60;99.90;;;;;;5088955;28;20024;-69
2021/09/30 13:14:54;;;;;;;5.95;2.00;;;16.40;99.90;;;;;;5089608;28;20034;-69
2021/09/30 13:17:23;;;;;;;7.15;1.98;;;16.00;99.90;;;;;;5089285;28;20115;-69
2021/09/30 13:19:53;;;;;;;6.30;1.60;;;15.70;99.90;;;;;;5088561;28;20021;-69
2021/09/30 13:22:27;;;;;;;7.13;1.40;;;15.90;99.90;;;;;;5088693;28;20032;-69
2021/09/30 13:24:55;;;;;;;8.15;1.65;;;16.20;99.90;;;;;;5089957;28;20381;-69
2021/09/30 13:27:23;;;;;;;6.88;1.38;;;16.80;99.90;;;;;;5091785;28;20401;-70
2021/09/30 13:29:49;;;;;;;5.88;1.40;;;16.70;99.90;;;;;;5089659;28;20027;-70
2021/09/30 13:32:16;;;;;;;6.93;1.27;;;16.80;99.90;;;;;;5088629;28;20024;-70
2021/09/30 13:34:42;;;;;;;5.85;1.30;;;16.70;99.90;;;;;;5089447;28;20028;-70
2021/09/30 13:37:09;;;;;;;4.28;1.45;;;16.90;99.90;;;;;;5088491;28;20020;-69
2021/09/30 13:39:34;;;;;;;6.93;1.70;;;16.80;99.90;;;;;;5091368;28;20028;-70
2021/09/30 13:42:00;;;;;;;5.75;1.20;;;16.90;99.90;;;;;;5089424;28;20049;-70
2021/09/30 13:44:26;;;;;;;6.38;1.63;;;16.90;98.60;;;;;;5110311;28;20035;-69
2021/09/30 13:46:52;;;;;;;4.50;1.33;;;16.70;99.90;;;;;;5099057;28;20017;-69
2021/09/30 13:49:17;;;;;;;7.63;1.50;;;16.70;99.30;;;;;;5089315;28;20024;-70
2021/09/30 13:51:43;;;;;;;5.82;1.52;;;16.30;99.90;;;;;;5088584;28;20354;-69
2021/09/30 13:54:09;;;;;;;8.60;1.70;;;16.00;99.90;;;;;;5075272;28;20378;-69
2021/09/30 13:56:34;;;;;;;6.50;1.50;;;15.90;99.90;;;;;;5075835;28;20028;-67
2021/09/30 13:59:00;;;;;;;8.00;1.38;;;15.90;99.90;;;;;;5074136;28;20107;-70
2021/09/30 14:01:26;;;;;;;5.32;1.80;;;15.90;99.90;;;;;;5074224;28;20029;-70
2021/09/30 14:03:52;;;;;;;4.88;1.50;;;16.00;99.90;;;;;;5073816;28;20481;-70
2021/09/30 14:06:17;;;;;;;6.22;1.40;;;16.10;99.90;;;;;;5075892;28;20074;-70
2021/09/30 14:08:45;;;;;;;5.13;1.33;;;16.50;99.90;;;;;;5074009;28;20091;-70
2021/09/30 14:11:13;;;;;;;5.93;1.75;;;16.50;99.90;;;;;;5075532;28;20488;-69
2021/09/30 14:13:39;;;;;;;4.53;1.38;;;16.40;99.90;;;;;;5075191;28;20028;-69
2021/09/30 14:16:05;;;;;;;6.63;1.30;;;16.60;99.90;;;;;;5074927;28;20426;-68
2021/09/30 14:18:31;;;;;;;4.40;1.17;;;16.50;99.90;;;;;;5075495;28;20056;-66
2021/09/30 14:20:56;;;;;;;4.40;1.33;;;16.20;99.90;;;;;;5074192;28;20571;-70
2021/09/30 14:23:22;;;;;;;7.95;1.65;;;16.30;99.90;;;;;;5074259;28;20047;-70
2021/09/30 14:25:49;;;;;;;6.88;1.30;;;16.10;99.90;;;;;;5074018;28;20012;-68
2021/09/30 14:28:15;;;;;;;5.20;1.60;;;15.90;99.90;;;;;;5074938;28;20059;-68
2021/09/30 14:30:41;;;;;;;7.43;1.75;;;16.00;99.90;;;;;;5075106;28;20381;-68
2021/09/30 14:33:07;;;;;;;5.75;1.25;;;15.90;99.90;;;;;;5075635;28;20030;-68
2021/09/30 14:35:33;;;;;;;7.00;1.25;;;15.70;99.90;;;;;;5075012;28;20082;-69
2021/09/30 14:37:59;;;;;;;6.80;1.38;;;15.60;99.90;;;;;;5075097;28;20040;-69
2021/09/30 14:40:25;;;;;;;2.30;1.02;;;15.50;99.90;;;;;;5074734;28;20063;-69
2021/09/30 14:42:51;;;;;;;3.72;1.38;;;15.40;99.90;;;;;;5082227;28;20056;-69
2021/09/30 14:45:16;;;;;;;7.38;1.42;;;15.50;99.90;;;;;;5084777;28;20379;-68
2021/09/30 14:47:42;;;;;;;6.15;2.05;;;15.40;99.90;;;;;;5075014;28;20466;-69
2021/09/30 14:50:08;;;;;;;3.53;1.23;;;15.40;99.90;;;;;;5074673;28;20031;-68
2021/09/30 14:52:33;;;;;;;8.75;1.55;;;15.40;99.90;;;;;;5075154;28;20031;-68
2021/09/30 14:54:59;;;;;;;4.65;1.20;;;15.40;99.90;;;;;;5074427;28;20035;-69
2021/09/30 14:57:24;;;;;;;4.40;1.20;;;15.30;99.90;;;;;;5075019;28;20543;-69
2021/09/30 14:59:50;;;;;;;4.95;1.25;;;15.30;99.90;;;;;;5074440;28;20035;-69
2021/09/30 15:02:15;;;;;;;8.18;1.25;;;15.20;99.90;;;;;;5074423;28;20090;-68
2021/09/30 15:04:41;;;;;;;5.38;1.38;;;15.10;99.90;;;;;;5072202;28;20412;-68
2021/09/30 15:07:06;;;;;;;3.92;1.30;;;15.10;99.90;;;;;;5074443;28;20024;-69
2021/09/30 15:09:32;;;;;;;7.05;1.70;;;15.10;99.90;;;;;;5074430;28;20013;-68
2021/09/30 15:11:58;;;;;;;9.00;1.60;;;15.00;99.90;;;;;;5073051;28;20036;-68
2021/09/30 15:14:24;;;;;;;7.18;1.60;;;14.90;99.90;;;;;;5074620;28;20470;-68
2021/09/30 15:16:55;;;;;;;6.22;1.50;;;14.90;99.90;;;;;;5073166;28;20024;-69
2021/09/30 15:19:26;;;;;;;9.80;1.42;;;15.00;99.90;;;;;;5074297;28;20069;-68
2021/09/30 15:21:53;;;;;;;8.63;1.30;;;15.10;99.90;;;;;;5073793;28;20394;-68
2021/09/30 15:24:19;;;;;;;5.40;1.60;;;15.10;99.90;;;;;;5074330;28;20487;-69
2021/09/30 15:26:46;;;;;;;5.05;1.00;;;15.20;99.90;;;;;;5072769;28;20028;-69
2021/09/30 15:29:12;;;;;;;3.00;1.35;;;15.10;99.90;;;;;;5074084;28;20059;-68
2021/09/30 15:31:42;;;;;;;6.40;1.58;;;15.10;99.90;;;;;;5073180;28;20025;-68
2021/09/30 15:34:08;;;;;;;5.90;1.60;;;15.00;99.90;;;;;;5072857;28;20386;-68
2021/09/30 15:36:34;;;;;;;6.47;1.52;;;14.90;99.90;;;;;;5073874;28;20025;-68
2021/09/30 15:39:02;;;;;;;8.13;1.73;;;14.90;99.90;;;;;;5074137;28;20074;-68